sensor_id;sensor_type;location;lat;lon;timestamp;temperature;humidity
20231;DHT22;10274;49.022;9.338;2023-05-15T00:01:16;9.00;99.90
20231;DHT22;10274;49.022;9.338;2023-05-15T00:03:43;9.10;99.90
20231;DHT22;10274;49.022;9.338;2023-05-15T00:06:10;9.20;99.90
20231;DHT22;10274;49.022;9.338;2023-05-15T00:08:36;9.30;99.90
20231;DHT22;10274;49.022;9.338;2023-05-15T00:11:05;9.40;99.90
20231;DHT22;10274;49.022;9.338;2023-05-15T00:13:31;9.40;99.90
20231;DHT22;10274;49.022;9.338;2023-05-15T00:15:58;9.40;99.90
20231;DHT22;10274;49.022;9.338;2023-05-15T00:18:25;9.10;99.90
20231;DHT22;10274;49.022;9.338;2023-05-15T00:20:51;9.10;99.90
20231;DHT22;10274;49.022;9.338;2023-05-15T00:23:18;9.30;99.90
20231;DHT22;10274;49.022;9.338;2023-05-15T00:25:45;9.30;99.90
20231;DHT22;10274;49.022;9.338;2023-05-15T00:28:13;9.40;99.90
20231;DHT22;10274;49.022;9.338;2023-05-15T00:30:39;9.40;99.90
20231;DHT22;10274;49.022;9.338;2023-05-15T00:33:06;9.40;99.90
20231;DHT22;10274;49.022;9.338;2023-05-15T00:35:33;9.50;99.90
20231;DHT22;10274;49.022;9.338;2023-05-15T00:38:00;9.40;99.90
20231;DHT22;10274;49.022;9.338;2023-05-15T00:40:27;9.40;99.90
20231;DHT22;10274;49.022;9.338;2023-05-15T00:42:54;9.20;99.90
20231;DHT22;10274;49.022;9.338;2023-05-15T00:45:23;9.00;99.90
20231;DHT22;10274;49.022;9.338;2023-05-15T00:47:52;9.00;99.90
20231;DHT22;10274;49.022;9.338;2023-05-15T00:50:20;8.90;99.90
20231;DHT22;10274;49.022;9.338;2023-05-15T00:52:47;8.90;99.90
20231;DHT22;10274;49.022;9.338;2023-05-15T00:55:14;9.10;99.90
20231;DHT22;10274;49.022;9.338;2023-05-15T00:57:42;9.20;99.90
20231;DHT22;10274;49.022;9.338;2023-05-15T01:00:10;9.20;99.90
20231;DHT22;10274;49.022;9.338;2023-05-15T01:02:41;9.20;99.90
20231;DHT22;10274;49.022;9.338;2023-05-15T01:05:08;9.20;99.90
20231;DHT22;10274;49.022;9.338;2023-05-15T01:07:45;9.30;99.90
20231;DHT22;10274;49.022;9.338;2023-05-15T01:10:14;9.40;99.90
20231;DHT22;10274;49.022;9.338;2023-05-15T01:12:42;9.50;99.90
20231;DHT22;10274;49.022;9.338;2023-05-15T01:15:10;9.50;99.90
20231;DHT22;10274;49.022;9.338;2023-05-15T01:17:36;9.60;99.90
20231;DHT22;10274;49.022;9.338;2023-05-15T01:20:07;9.60;99.90
20231;DHT22;10274;49.022;9.338;2023-05-15T01:22:46;9.60;99.90
20231;DHT22;10274;49.022;9.338;2023-05-15T01:25:41;9.60;99.90
20231;DHT22;10274;49.022;9.338;2023-05-15T01:28:13;9.60;99.90
20231;DHT22;10274;49.022;9.338;2023-05-15T01:30:42;9.70;99.90
20231;DHT22;10274;49.022;9.338;2023-05-15T01:33:17;9.70;99.90
20231;DHT22;10274;49.022;9.338;2023-05-15T01:35:49;9.70;99.90
20231;DHT22;10274;49.022;9.338;2023-05-15T01:38:24;9.70;99.90
20231;DHT22;10274;49.022;9.338;2023-05-15T01:41:00;9.60;99.90
20231;DHT22;10274;49.022;9.338;2023-05-15T01:43:31;9.40;99.90
20231;DHT22;10274;49.022;9.338;2023-05-15T01:45:59;9.30;99.90
20231;DHT22;10274;49.022;9.338;2023-05-15T01:48:27;9.20;99.90
20231;DHT22;10274;49.022;9.338;2023-05-15T01:50:57;9.20;99.90
20231;DHT22;10274;49.022;9.338;2023-05-15T01:53:27;9.30;99.90
20231;DHT22;10274;49.022;9.338;2023-05-15T01:55:56;9.40;99.90
20231;DHT22;10274;49.022;9.338;2023-05-15T01:58:24;9.50;99.90
20231;DHT22;10274;49.022;9.338;2023-05-15T02:00:52;9.50;99.90
20231;DHT22;10274;49.022;9.338;2023-05-15T02:03:19;9.50;99.90
20231;DHT22;10274;49.022;9.338;2023-05-15T02:05:46;9.50;99.90
20231;DHT22;10274;49.022;9.338;2023-05-15T02:08:13;9.30;99.90
20231;DHT22;10274;49.022;9.338;2023-05-15T02:10:42;9.10;99.90
20231;DHT22;10274;49.022;9.338;2023-05-15T02:13:09;9.10;99.90
20231;DHT22;10274;49.022;9.338;2023-05-15T02:15:37;9.10;99.90
20231;DHT22;10274;49.022;9.338;2023-05-15T02:18:05;9.20;99.90
20231;DHT22;10274;49.022;9.338;2023-05-15T02:20:32;9.30;99.90
20231;DHT22;10274;49.022;9.338;2023-05-15T02:22:59;9.30;99.90
20231;DHT22;10274;49.022;9.338;2023-05-15T02:25:33;9.20;99.90
20231;DHT22;10274;49.022;9.338;2023-05-15T02:28:03;9.00;99.90
20231;DHT22;10274;49.022;9.338;2023-05-15T02:30:37;9.00;99.90
20231;DHT22;10274;49.022;9.338;2023-05-15T02:33:13;9.10;99.90
20231;DHT22;10274;49.022;9.338;2023-05-15T02:35:50;9.30;99.90
20231;DHT22;10274;49.022;9.338;2023-05-15T02:38:19;9.30;99.90
20231;DHT22;10274;49.022;9.338;2023-05-15T02:40:49;9.30;99.90
20231;DHT22;10274;49.022;9.338;2023-05-15T02:43:17;9.40;99.90
20231;DHT22;10274;49.022;9.338;2023-05-15T02:45:45;9.20;99.90
20231;DHT22;10274;49.022;9.338;2023-05-15T02:48:14;9.00;99.90
20231;DHT22;10274;49.022;9.338;2023-05-15T02:50:42;9.00;99.90
20231;DHT22;10274;49.022;9.338;2023-05-15T02:53:09;9.00;99.90
20231;DHT22;10274;49.022;9.338;2023-05-15T02:55:38;9.10;99.90
20231;DHT22;10274;49.022;9.338;2023-05-15T02:58:05;9.20;99.90
20231;DHT22;10274;49.022;9.338;2023-05-15T03:00:32;9.30;99.90
20231;DHT22;10274;49.022;9.338;2023-05-15T03:02:59;9.10;99.90
20231;DHT22;10274;49.022;9.338;2023-05-15T03:05:27;9.00;99.90
20231;DHT22;10274;49.022;9.338;2023-05-15T03:07:53;9.00;99.90
20231;DHT22;10274;49.022;9.338;2023-05-15T03:10:20;9.10;99.90
20231;DHT22;10274;49.022;9.338;2023-05-15T03:12:48;9.20;99.90
20231;DHT22;10274;49.022;9.338;2023-05-15T03:15:15;9.30;99.90
20231;DHT22;10274;49.022;9.338;2023-05-15T03:17:42;9.40;99.90
20231;DHT22;10274;49.022;9.338;2023-05-15T03:20:09;9.40;99.90
20231;DHT22;10274;49.022;9.338;2023-05-15T03:22:39;9.50;99.90
20231;DHT22;10274;49.022;9.338;2023-05-15T03:25:08;9.50;99.90
20231;DHT22;10274;49.022;9.338;2023-05-15T03:27:35;9.50;99.90
20231;DHT22;10274;49.022;9.338;2023-05-15T03:30:02;9.30;99.90
20231;DHT22;10274;49.022;9.338;2023-05-15T03:32:29;9.30;99.90
20231;DHT22;10274;49.022;9.338;2023-05-15T03:34:56;9.30;99.90
20231;DHT22;10274;49.022;9.338;2023-05-15T03:37:22;9.30;99.90
20231;DHT22;10274;49.022;9.338;2023-05-15T03:39:50;9.30;99.90
20231;DHT22;10274;49.022;9.338;2023-05-15T03:42:17;9.40;99.90
20231;DHT22;10274;49.022;9.338;2023-05-15T03:44:47;9.30;99.90
20231;DHT22;10274;49.022;9.338;2023-05-15T03:47:14;9.20;99.90
20231;DHT22;10274;49.022;9.338;2023-05-15T03:49:41;9.20;99.90
20231;DHT22;10274;49.022;9.338;2023-05-15T03:52:08;9.20;99.90
20231;DHT22;10274;49.022;9.338;2023-05-15T03:54:35;9.20;99.90
20231;DHT22;10274;49.022;9.338;2023-05-15T03:57:03;9.30;99.90
20231;DHT22;10274;49.022;9.338;2023-05-15T03:59:30;9.40;99.90
20231;DHT22;10274;49.022;9.338;2023-05-15T04:01:57;9.40;99.90
20231;DHT22;10274;49.022;9.338;2023-05-15T04:04:24;9.40;99.90
20231;DHT22;10274;49.022;9.338;2023-05-15T04:06:50;9.30;99.90
20231;DHT22;10274;49.022;9.338;2023-05-15T04:09:17;9.30;99.90
20231;DHT22;10274;49.022;9.338;2023-05-15T04:11:44;9.30;99.90
20231;DHT22;10274;49.022;9.338;2023-05-15T04:14:12;9.30;99.90
20231;DHT22;10274;49.022;9.338;2023-05-15T04:16:39;9.40;99.90
20231;DHT22;10274;49.022;9.338;2023-05-15T04:19:05;9.50;99.90
20231;DHT22;10274;49.022;9.338;2023-05-15T04:21:32;9.50;99.90
20231;DHT22;10274;49.022;9.338;2023-05-15T04:23:59;9.60;99.90
20231;DHT22;10274;49.022;9.338;2023-05-15T04:26:26;9.60;99.90
20231;DHT22;10274;49.022;9.338;2023-05-15T04:28:52;9.50;99.90
20231;DHT22;10274;49.022;9.338;2023-05-15T04:31:22;9.40;99.90
20231;DHT22;10274;49.022;9.338;2023-05-15T04:33:49;9.40;99.90
20231;DHT22;10274;49.022;9.338;2023-05-15T04:36:15;9.40;99.90
20231;DHT22;10274;49.022;9.338;2023-05-15T04:38:42;9.40;99.90
20231;DHT22;10274;49.022;9.338;2023-05-15T04:41:09;9.50;99.90
20231;DHT22;10274;49.022;9.338;2023-05-15T04:43:36;9.50;99.90
20231;DHT22;10274;49.022;9.338;2023-05-15T04:46:03;9.60;99.90
20231;DHT22;10274;49.022;9.338;2023-05-15T04:48:31;9.70;99.90
20231;DHT22;10274;49.022;9.338;2023-05-15T04:50:58;9.80;99.90
20231;DHT22;10274;49.022;9.338;2023-05-15T04:53:24;9.90;99.90
20231;DHT22;10274;49.022;9.338;2023-05-15T04:55:51;10.00;99.90
20231;DHT22;10274;49.022;9.338;2023-05-15T04:58:18;10.10;99.90
20231;DHT22;10274;49.022;9.338;2023-05-15T05:00:44;10.20;99.90
20231;DHT22;10274;49.022;9.338;2023-05-15T05:03:11;10.20;99.90
20231;DHT22;10274;49.022;9.338;2023-05-15T05:05:39;10.20;99.90
20231;DHT22;10274;49.022;9.338;2023-05-15T05:08:06;10.20;99.90
20231;DHT22;10274;49.022;9.338;2023-05-15T05:10:32;10.30;99.90
20231;DHT22;10274;49.022;9.338;2023-05-15T05:12:59;10.20;99.90
20231;DHT22;10274;49.022;9.338;2023-05-15T05:15:26;10.10;99.90
20231;DHT22;10274;49.022;9.338;2023-05-15T05:17:52;10.10;99.90
20231;DHT22;10274;49.022;9.338;2023-05-15T05:20:19;10.10;99.90
20231;DHT22;10274;49.022;9.338;2023-05-15T05:22:47;10.10;99.90
20231;DHT22;10274;49.022;9.338;2023-05-15T05:25:14;10.30;99.90
20231;DHT22;10274;49.022;9.338;2023-05-15T05:27:41;10.30;99.90
20231;DHT22;10274;49.022;9.338;2023-05-15T05:30:08;10.50;99.90
20231;DHT22;10274;49.022;9.338;2023-05-15T05:32:35;10.60;99.90
20231;DHT22;10274;49.022;9.338;2023-05-15T05:35:02;10.80;99.90
20231;DHT22;10274;49.022;9.338;2023-05-15T05:37:29;10.80;99.90
20231;DHT22;10274;49.022;9.338;2023-05-15T05:39:57;10.90;99.90
20231;DHT22;10274;49.022;9.338;2023-05-15T05:42:24;10.90;99.90
20231;DHT22;10274;49.022;9.338;2023-05-15T05:44:51;11.00;99.90
20231;DHT22;10274;49.022;9.338;2023-05-15T05:47:18;11.20;99.90
20231;DHT22;10274;49.022;9.338;2023-05-15T05:49:44;11.40;99.90
20231;DHT22;10274;49.022;9.338;2023-05-15T05:52:12;11.40;99.90
20231;DHT22;10274;49.022;9.338;2023-05-15T05:54:40;11.60;99.90
20231;DHT22;10274;49.022;9.338;2023-05-15T05:57:08;11.60;99.90
20231;DHT22;10274;49.022;9.338;2023-05-15T05:59:35;11.70;99.90
20231;DHT22;10274;49.022;9.338;2023-05-15T06:02:02;11.80;99.90
20231;DHT22;10274;49.022;9.338;2023-05-15T06:04:29;12.10;99.90
20231;DHT22;10274;49.022;9.338;2023-05-15T06:06:56;12.20;90.00
20231;DHT22;10274;49.022;9.338;2023-05-15T06:09:22;12.30;99.90
20231;DHT22;10274;49.022;9.338;2023-05-15T06:11:49;12.40;71.80
20231;DHT22;10274;49.022;9.338;2023-05-15T06:14:17;12.50;42.70
20231;DHT22;10274;49.022;9.338;2023-05-15T06:16:44;12.60;46.60
20231;DHT22;10274;49.022;9.338;2023-05-15T06:19:10;12.80;70.60
20231;DHT22;10274;49.022;9.338;2023-05-15T06:21:37;13.00;47.40
20231;DHT22;10274;49.022;9.338;2023-05-15T06:24:04;13.30;66.70
20231;DHT22;10274;49.022;9.338;2023-05-15T06:26:31;13.40;12.40
20231;DHT22;10274;49.022;9.338;2023-05-15T06:28:57;13.40;1.00
20231;DHT22;10274;49.022;9.338;2023-05-15T06:31:25;13.40;1.00
20231;DHT22;10274;49.022;9.338;2023-05-15T06:33:52;13.50;13.70
20231;DHT22;10274;49.022;9.338;2023-05-15T06:36:19;13.50;1.00
20231;DHT22;10274;49.022;9.338;2023-05-15T06:38:45;13.70;1.00
20231;DHT22;10274;49.022;9.338;2023-05-15T06:41:12;13.80;1.00
20231;DHT22;10274;49.022;9.338;2023-05-15T06:43:39;14.00;1.00
20231;DHT22;10274;49.022;9.338;2023-05-15T06:46:05;14.10;1.00
20231;DHT22;10274;49.022;9.338;2023-05-15T06:48:34;14.10;1.00
20231;DHT22;10274;49.022;9.338;2023-05-15T06:51:01;14.10;1.00
20231;DHT22;10274;49.022;9.338;2023-05-15T06:53:28;14.40;1.00
20231;DHT22;10274;49.022;9.338;2023-05-15T06:55:55;14.50;1.00
20231;DHT22;10274;49.022;9.338;2023-05-15T06:58:22;14.80;1.00
20231;DHT22;10274;49.022;9.338;2023-05-15T07:00:49;15.20;1.00
20231;DHT22;10274;49.022;9.338;2023-05-15T07:03:16;15.40;1.00
20231;DHT22;10274;49.022;9.338;2023-05-15T07:05:44;15.40;1.00
20231;DHT22;10274;49.022;9.338;2023-05-15T07:08:11;15.50;1.00
20231;DHT22;10274;49.022;9.338;2023-05-15T07:10:37;15.50;1.00
20231;DHT22;10274;49.022;9.338;2023-05-15T07:13:04;15.40;1.00
20231;DHT22;10274;49.022;9.338;2023-05-15T07:15:31;15.70;1.00
20231;DHT22;10274;49.022;9.338;2023-05-15T07:17:57;16.00;1.00
20231;DHT22;10274;49.022;9.338;2023-05-15T07:20:24;16.00;1.00
20231;DHT22;10274;49.022;9.338;2023-05-15T07:22:52;16.20;1.00
20231;DHT22;10274;49.022;9.338;2023-05-15T07:25:19;16.20;1.00
20231;DHT22;10274;49.022;9.338;2023-05-15T07:27:45;16.20;1.00
20231;DHT22;10274;49.022;9.338;2023-05-15T07:30:13;16.40;1.00
20231;DHT22;10274;49.022;9.338;2023-05-15T07:32:39;16.50;99.90
20231;DHT22;10274;49.022;9.338;2023-05-15T07:35:07;16.60;99.90
20231;DHT22;10274;49.022;9.338;2023-05-15T07:37:35;16.80;99.90
20231;DHT22;10274;49.022;9.338;2023-05-15T07:40:05;17.10;1.00
20231;DHT22;10274;49.022;9.338;2023-05-15T07:42:32;17.00;99.90
20231;DHT22;10274;49.022;9.338;2023-05-15T07:44:58;16.60;99.90
20231;DHT22;10274;49.022;9.338;2023-05-15T07:47:25;16.50;1.00
20231;DHT22;10274;49.022;9.338;2023-05-15T07:49:52;16.70;1.00
20231;DHT22;10274;49.022;9.338;2023-05-15T07:52:18;16.80;41.10
20231;DHT22;10274;49.022;9.338;2023-05-15T07:54:45;16.50;1.00
20231;DHT22;10274;49.022;9.338;2023-05-15T07:57:13;16.40;99.90
20231;DHT22;10274;49.022;9.338;2023-05-15T07:59:40;16.50;1.00
20231;DHT22;10274;49.022;9.338;2023-05-15T08:02:07;16.80;1.00
20231;DHT22;10274;49.022;9.338;2023-05-15T08:04:34;17.20;1.00
20231;DHT22;10274;49.022;9.338;2023-05-15T08:07:00;17.20;99.90
20231;DHT22;10274;49.022;9.338;2023-05-15T08:09:27;17.10;1.00
20231;DHT22;10274;49.022;9.338;2023-05-15T08:11:55;17.40;99.90
20231;DHT22;10274;49.022;9.338;2023-05-15T08:14:23;17.50;99.90
20231;DHT22;10274;49.022;9.338;2023-05-15T08:16:49;17.50;93.70
20231;DHT22;10274;49.022;9.338;2023-05-15T08:19:16;17.60;1.00
20231;DHT22;10274;49.022;9.338;2023-05-15T08:21:43;17.10;99.90
20231;DHT22;10274;49.022;9.338;2023-05-15T08:24:10;17.10;1.00
20231;DHT22;10274;49.022;9.338;2023-05-15T08:26:37;17.20;99.90
20231;DHT22;10274;49.022;9.338;2023-05-15T08:29:04;17.80;1.00
20231;DHT22;10274;49.022;9.338;2023-05-15T08:31:32;18.10;99.90
20231;DHT22;10274;49.022;9.338;2023-05-15T08:33:58;18.50;20.30
20231;DHT22;10274;49.022;9.338;2023-05-15T08:36:25;18.80;1.00
20231;DHT22;10274;49.022;9.338;2023-05-15T08:38:52;18.80;1.00
20231;DHT22;10274;49.022;9.338;2023-05-15T08:41:26;19.10;1.00
20231;DHT22;10274;49.022;9.338;2023-05-15T08:43:56;17.90;1.00
20231;DHT22;10274;49.022;9.338;2023-05-15T08:46:24;17.70;1.00
20231;DHT22;10274;49.022;9.338;2023-05-15T08:48:52;18.00;1.00
20231;DHT22;10274;49.022;9.338;2023-05-15T08:51:20;19.30;99.90
20231;DHT22;10274;49.022;9.338;2023-05-15T08:53:47;19.90;99.90
20231;DHT22;10274;49.022;9.338;2023-05-15T08:56:15;20.00;1.00
20231;DHT22;10274;49.022;9.338;2023-05-15T08:58:42;19.80;99.90
20231;DHT22;10274;49.022;9.338;2023-05-15T09:01:11;21.00;99.90
20231;DHT22;10274;49.022;9.338;2023-05-15T09:03:38;22.20;83.20
20231;DHT22;10274;49.022;9.338;2023-05-15T09:06:07;21.80;1.00
20231;DHT22;10274;49.022;9.338;2023-05-15T09:08:35;22.20;1.00
20231;DHT22;10274;49.022;9.338;2023-05-15T09:11:03;23.70;1.00
20231;DHT22;10274;49.022;9.338;2023-05-15T09:13:32;24.00;99.90
20231;DHT22;10274;49.022;9.338;2023-05-15T09:15:59;21.80;99.90
20231;DHT22;10274;49.022;9.338;2023-05-15T09:18:25;22.30;99.90
20231;DHT22;10274;49.022;9.338;2023-05-15T09:20:52;23.70;99.90
20231;DHT22;10274;49.022;9.338;2023-05-15T09:23:23;23.00;99.90
20231;DHT22;10274;49.022;9.338;2023-05-15T09:25:51;22.70;99.90
20231;DHT22;10274;49.022;9.338;2023-05-15T09:28:25;23.70;99.90
20231;DHT22;10274;49.022;9.338;2023-05-15T09:30:57;24.50;99.90
20231;DHT22;10274;49.022;9.338;2023-05-15T09:33:27;24.30;99.90
20231;DHT22;10274;49.022;9.338;2023-05-15T09:35:54;25.10;99.90
20231;DHT22;10274;49.022;9.338;2023-05-15T09:38:22;24.20;66.80
20231;DHT22;10274;49.022;9.338;2023-05-15T09:40:49;23.80;67.50
20231;DHT22;10274;49.022;9.338;2023-05-15T09:43:16;22.70;77.50
20231;DHT22;10274;49.022;9.338;2023-05-15T09:45:46;23.40;99.80
20231;DHT22;10274;49.022;9.338;2023-05-15T09:48:13;22.90;38.30
20231;DHT22;10274;49.022;9.338;2023-05-15T09:50:40;21.90;99.90
20231;DHT22;10274;49.022;9.338;2023-05-15T09:53:10;21.40;99.90
20231;DHT22;10274;49.022;9.338;2023-05-15T09:55:40;23.10;99.90
20231;DHT22;10274;49.022;9.338;2023-05-15T09:58:08;23.40;57.20
20231;DHT22;10274;49.022;9.338;2023-05-15T10:00:36;23.20;1.00
20231;DHT22;10274;49.022;9.338;2023-05-15T10:03:05;24.10;1.00
20231;DHT22;10274;49.022;9.338;2023-05-15T10:05:32;24.30;1.00
20231;DHT22;10274;49.022;9.338;2023-05-15T10:10:28;25.50;1.00
20231;DHT22;10274;49.022;9.338;2023-05-15T10:12:58;25.30;1.00
20231;DHT22;10274;49.022;9.338;2023-05-15T10:15:27;25.60;1.00
20231;DHT22;10274;49.022;9.338;2023-05-15T10:17:54;25.00;1.00
20231;DHT22;10274;49.022;9.338;2023-05-15T10:20:23;25.20;1.00
20231;DHT22;10274;49.022;9.338;2023-05-15T10:22:51;24.50;1.00
20231;DHT22;10274;49.022;9.338;2023-05-15T10:25:26;25.00;1.00
20231;DHT22;10274;49.022;9.338;2023-05-15T10:27:55;25.40;1.00
20231;DHT22;10274;49.022;9.338;2023-05-15T10:30:22;25.50;1.00
20231;DHT22;10274;49.022;9.338;2023-05-15T10:32:50;26.20;1.00
20231;DHT22;10274;49.022;9.338;2023-05-15T10:35:17;25.50;1.00
20231;DHT22;10274;49.022;9.338;2023-05-15T10:37:46;25.60;1.00
20231;DHT22;10274;49.022;9.338;2023-05-15T10:40:14;26.20;1.00
20231;DHT22;10274;49.022;9.338;2023-05-15T10:42:43;25.30;1.00
20231;DHT22;10274;49.022;9.338;2023-05-15T10:45:11;26.00;1.00
20231;DHT22;10274;49.022;9.338;2023-05-15T10:47:39;25.10;1.00
20231;DHT22;10274;49.022;9.338;2023-05-15T10:50:07;25.90;1.00
20231;DHT22;10274;49.022;9.338;2023-05-15T10:52:35;25.90;1.00
20231;DHT22;10274;49.022;9.338;2023-05-15T10:55:05;24.40;1.00
20231;DHT22;10274;49.022;9.338;2023-05-15T10:57:32;24.80;1.00
20231;DHT22;10274;49.022;9.338;2023-05-15T10:59:59;25.50;1.00
20231;DHT22;10274;49.022;9.338;2023-05-15T11:02:28;26.10;1.00
20231;DHT22;10274;49.022;9.338;2023-05-15T11:04:56;26.30;1.00
20231;DHT22;10274;49.022;9.338;2023-05-15T11:07:23;26.90;1.00
20231;DHT22;10274;49.022;9.338;2023-05-15T11:09:50;26.80;1.00
20231;DHT22;10274;49.022;9.338;2023-05-15T11:12:17;26.70;1.00
20231;DHT22;10274;49.022;9.338;2023-05-15T11:15:17;25.30;1.00
20231;DHT22;10274;49.022;9.338;2023-05-15T11:18:01;23.10;1.00
20231;DHT22;10274;49.022;9.338;2023-05-15T11:20:39;21.80;1.00
20231;DHT22;10274;49.022;9.338;2023-05-15T11:23:06;21.30;1.00
20231;DHT22;10274;49.022;9.338;2023-05-15T11:25:33;20.90;1.00
20231;DHT22;10274;49.022;9.338;2023-05-15T11:28:02;20.30;1.00
20231;DHT22;10274;49.022;9.338;2023-05-15T11:30:36;20.00;1.00
20231;DHT22;10274;49.022;9.338;2023-05-15T11:33:06;19.60;1.00
20231;DHT22;10274;49.022;9.338;2023-05-15T11:35:36;19.80;1.00
20231;DHT22;10274;49.022;9.338;2023-05-15T11:38:08;19.60;1.00
20231;DHT22;10274;49.022;9.338;2023-05-15T11:40:44;19.10;1.00
20231;DHT22;10274;49.022;9.338;2023-05-15T11:43:19;19.20;1.00
20231;DHT22;10274;49.022;9.338;2023-05-15T11:45:50;19.30;1.00
20231;DHT22;10274;49.022;9.338;2023-05-15T11:48:18;19.30;1.00
20231;DHT22;10274;49.022;9.338;2023-05-15T11:50:46;19.30;99.90
20231;DHT22;10274;49.022;9.338;2023-05-15T11:53:13;19.90;1.00
20231;DHT22;10274;49.022;9.338;2023-05-15T11:55:41;21.10;99.90
20231;DHT22;10274;49.022;9.338;2023-05-15T11:58:13;21.30;99.90
20231;DHT22;10274;49.022;9.338;2023-05-15T12:00:41;20.80;99.90
20231;DHT22;10274;49.022;9.338;2023-05-15T12:03:14;20.70;99.90
20231;DHT22;10274;49.022;9.338;2023-05-15T12:05:43;19.90;99.90
20231;DHT22;10274;49.022;9.338;2023-05-15T12:08:09;19.30;1.00
20231;DHT22;10274;49.022;9.338;2023-05-15T12:10:40;18.70;1.00
20231;DHT22;10274;49.022;9.338;2023-05-15T12:13:08;18.80;23.40
20231;DHT22;10274;49.022;9.338;2023-05-15T12:15:36;18.60;1.00
20231;DHT22;10274;49.022;9.338;2023-05-15T12:18:04;18.30;1.00
20231;DHT22;10274;49.022;9.338;2023-05-15T12:20:32;17.60;99.90
20231;DHT22;10274;49.022;9.338;2023-05-15T12:23:02;16.90;1.00
20231;DHT22;10274;49.022;9.338;2023-05-15T12:25:29;16.90;1.00
20231;DHT22;10274;49.022;9.338;2023-05-15T12:27:57;16.80;99.90
20231;DHT22;10274;49.022;9.338;2023-05-15T12:30:26;16.70;99.90
20231;DHT22;10274;49.022;9.338;2023-05-15T12:32:53;16.50;1.00
20231;DHT22;10274;49.022;9.338;2023-05-15T12:35:20;16.30;1.00
20231;DHT22;10274;49.022;9.338;2023-05-15T12:37:46;16.40;1.00
20231;DHT22;10274;49.022;9.338;2023-05-15T12:40:19;16.10;99.90
20231;DHT22;10274;49.022;9.338;2023-05-15T12:42:52;16.10;1.00
20231;DHT22;10274;49.022;9.338;2023-05-15T12:45:21;16.20;1.00
20231;DHT22;10274;49.022;9.338;2023-05-15T12:47:49;16.60;99.90
20231;DHT22;10274;49.022;9.338;2023-05-15T12:50:17;16.90;99.90
20231;DHT22;10274;49.022;9.338;2023-05-15T12:52:50;17.30;99.90
20231;DHT22;10274;49.022;9.338;2023-05-15T12:55:22;18.10;1.00
20231;DHT22;10274;49.022;9.338;2023-05-15T12:57:49;18.60;1.00
20231;DHT22;10274;49.022;9.338;2023-05-15T13:00:17;18.70;99.90
20231;DHT22;10274;49.022;9.338;2023-05-15T13:02:51;18.70;99.90
20231;DHT22;10274;49.022;9.338;2023-05-15T13:05:18;18.60;1.00
20231;DHT22;10274;49.022;9.338;2023-05-15T13:07:46;18.40;1.00
20231;DHT22;10274;49.022;9.338;2023-05-15T13:10:13;18.30;99.90
20231;DHT22;10274;49.022;9.338;2023-05-15T13:12:44;18.30;1.00
20231;DHT22;10274;49.022;9.338;2023-05-15T13:15:26;18.40;1.00
20231;DHT22;10274;49.022;9.338;2023-05-15T13:17:58;18.40;99.90
20231;DHT22;10274;49.022;9.338;2023-05-15T13:20:26;18.40;1.00
20231;DHT22;10274;49.022;9.338;2023-05-15T13:22:53;18.30;1.00
20231;DHT22;10274;49.022;9.338;2023-05-15T13:25:20;18.30;1.00
20231;DHT22;10274;49.022;9.338;2023-05-15T13:27:48;18.10;1.00
20231;DHT22;10274;49.022;9.338;2023-05-15T13:30:16;18.40;99.90
20231;DHT22;10274;49.022;9.338;2023-05-15T13:32:43;18.50;99.90
20231;DHT22;10274;49.022;9.338;2023-05-15T13:35:10;18.50;1.00
20231;DHT22;10274;49.022;9.338;2023-05-15T13:37:37;18.70;1.00
20231;DHT22;10274;49.022;9.338;2023-05-15T13:40:06;18.70;1.00
20231;DHT22;10274;49.022;9.338;2023-05-15T13:42:35;18.90;99.90
20231;DHT22;10274;49.022;9.338;2023-05-15T13:45:04;19.20;1.00
20231;DHT22;10274;49.022;9.338;2023-05-15T13:47:30;19.50;1.00
20231;DHT22;10274;49.022;9.338;2023-05-15T13:49:57;19.80;1.00
20231;DHT22;10274;49.022;9.338;2023-05-15T13:52:24;20.20;1.00
20231;DHT22;10274;49.022;9.338;2023-05-15T13:54:51;20.30;1.00
20231;DHT22;10274;49.022;9.338;2023-05-15T13:57:17;20.70;1.00
20231;DHT22;10274;49.022;9.338;2023-05-15T13:59:44;20.90;99.90
20231;DHT22;10274;49.022;9.338;2023-05-15T14:02:12;21.10;99.90
20231;DHT22;10274;49.022;9.338;2023-05-15T14:04:39;21.10;99.90
20231;DHT22;10274;49.022;9.338;2023-05-15T14:07:06;21.20;99.90
20231;DHT22;10274;49.022;9.338;2023-05-15T14:09:32;21.10;99.90
20231;DHT22;10274;49.022;9.338;2023-05-15T14:11:59;21.10;99.90
20231;DHT22;10274;49.022;9.338;2023-05-15T14:14:26;21.20;99.90
20231;DHT22;10274;49.022;9.338;2023-05-15T14:16:52;21.70;99.90
20231;DHT22;10274;49.022;9.338;2023-05-15T14:19:20;21.80;99.90
20231;DHT22;10274;49.022;9.338;2023-05-15T14:21:48;21.80;61.80
20231;DHT22;10274;49.022;9.338;2023-05-15T14:24:14;21.80;1.00
20231;DHT22;10274;49.022;9.338;2023-05-15T14:26:41;21.90;1.00
20231;DHT22;10274;49.022;9.338;2023-05-15T14:29:09;21.80;1.00
20231;DHT22;10274;49.022;9.338;2023-05-15T14:31:36;22.00;1.00
20231;DHT22;10274;49.022;9.338;2023-05-15T14:34:03;22.00;1.00
20231;DHT22;10274;49.022;9.338;2023-05-15T14:36:32;21.80;1.00
20231;DHT22;10274;49.022;9.338;2023-05-15T14:38:59;21.80;1.00
20231;DHT22;10274;49.022;9.338;2023-05-15T14:41:26;21.70;1.00
20231;DHT22;10274;49.022;9.338;2023-05-15T14:43:53;21.00;1.00
20231;DHT22;10274;49.022;9.338;2023-05-15T14:46:19;20.90;3.10
20231;DHT22;10274;49.022;9.338;2023-05-15T14:48:46;21.00;99.70
20231;DHT22;10274;49.022;9.338;2023-05-15T14:51:13;21.00;99.90
20231;DHT22;10274;49.022;9.338;2023-05-15T14:53:41;20.70;87.70
20231;DHT22;10274;49.022;9.338;2023-05-15T14:56:08;20.00;99.90
20231;DHT22;10274;49.022;9.338;2023-05-15T14:58:35;19.50;99.90
20231;DHT22;10274;49.022;9.338;2023-05-15T15:01:02;19.20;99.90
20231;DHT22;10274;49.022;9.338;2023-05-15T15:03:29;18.90;99.90
20231;DHT22;10274;49.022;9.338;2023-05-15T15:05:56;18.80;99.90
20231;DHT22;10274;49.022;9.338;2023-05-15T15:08:23;18.90;99.90
20231;DHT22;10274;49.022;9.338;2023-05-15T15:10:51;19.30;99.90
20231;DHT22;10274;49.022;9.338;2023-05-15T15:13:18;19.30;99.90
20231;DHT22;10274;49.022;9.338;2023-05-15T15:15:45;19.20;99.90
20231;DHT22;10274;49.022;9.338;2023-05-15T15:18:12;19.30;99.90
20231;DHT22;10274;49.022;9.338;2023-05-15T15:20:40;19.40;98.90
20231;DHT22;10274;49.022;9.338;2023-05-15T15:23:07;19.40;99.90
20231;DHT22;10274;49.022;9.338;2023-05-15T15:25:34;19.40;99.90
20231;DHT22;10274;49.022;9.338;2023-05-15T15:28:02;19.20;99.90
20231;DHT22;10274;49.022;9.338;2023-05-15T15:30:29;19.10;99.90
20231;DHT22;10274;49.022;9.338;2023-05-15T15:32:56;19.20;99.90
20231;DHT22;10274;49.022;9.338;2023-05-15T15:35:23;19.20;99.90
20231;DHT22;10274;49.022;9.338;2023-05-15T15:37:50;19.10;99.90
20231;DHT22;10274;49.022;9.338;2023-05-15T15:40:17;19.00;99.90
20231;DHT22;10274;49.022;9.338;2023-05-15T15:42:44;19.00;99.90
20231;DHT22;10274;49.022;9.338;2023-05-15T15:45:12;18.90;99.90
20231;DHT22;10274;49.022;9.338;2023-05-15T15:47:39;18.80;99.90